Time,TemperatureF,DewpointF,PressureIn,WindDirection,WindDirectionDegrees,WindSpeedMPH,WindSpeedGustMPH,Humidity,HourlyPrecipIn,Conditions,Clouds,dailyrainin,SoftwareType,DateUTC
2013-02-08 00:01:00,29.7,24.0,30.11,NNW,332,3.0,8.0,80,0.00,,,0.00,weatherlink.com 1.10,2013-02-08 06:01:00,
2013-02-08 00:16:00,29.7,24.0,30.11,NNW,340,3.0,6.0,79,0.00,,,0.00,weatherlink.com 1.10,2013-02-08 06:16:00,
2013-02-08 00:31:00,29.4,24.0,30.12,NNW,332,3.0,3.0,81,0.00,,,0.00,weatherlink.com 1.10,2013-02-08 06:31:00,
2013-02-08 00:46:00,29.4,24.0,30.13,WNW,300,1.0,3.0,81,0.00,,,0.00,weatherlink.com 1.10,2013-02-08 06:46:00,
2013-02-08 01:02:00,29.5,25.0,30.13,NW,314,0.0,3.0,82,0.00,,,0.00,weatherlink.com 1.10,2013-02-08 07:02:00,
2013-02-08 01:16:00,29.4,25.0,30.13,NNW,330,6.0,7.0,82,0.00,,,0.00,weatherlink.com 1.10,2013-02-08 07:16:00,
2013-02-08 01:31:00,29.4,24.0,30.13,North,352,4.0,5.0,81,0.00,,,0.00,weatherlink.com 1.10,2013-02-08 07:31:00,
2013-02-08 01:46:00,29.4,24.0,30.13,NNW,334,2.0,6.0,81,0.00,,,0.00,weatherlink.com 1.10,2013-02-08 07:46:00,
2013-02-08 02:02:00,29.4,24.0,30.13,NNE,18,2.0,7.0,80,0.00,,,0.00,weatherlink.com 1.10,2013-02-08 08:02:00,
2013-02-08 02:16:00,29.3,24.0,30.13,NNW,328,4.0,7.0,81,0.00,,,0.00,weatherlink.com 1.10,2013-02-08 08:16:00,
2013-02-08 02:34:00,29.2,24.0,30.14,NE,50,3.0,4.0,81,0.00,,,0.00,weatherlink.com 1.10,2013-02-08 08:34:00,
2013-02-08 02:55:00,29.2,24.0,30.14,NNW,332,3.0,6.0,82,0.00,,,0.00,weatherlink.com 1.10,2013-02-08 08:55:00,
2013-02-08 03:03:00,29.2,24.0,30.14,NE,34,3.0,6.0,82,0.00,,,0.00,weatherlink.com 1.10,2013-02-08 09:03:00,
2013-02-08 03:16:00,28.9,25.0,30.15,NE,49,4.0,6.0,84,0.00,,,0.00,weatherlink.com 1.10,2013-02-08 09:16:00,
2013-02-08 03:31:00,28.6,24.0,30.15,NE,51,3.0,6.0,84,0.00,,,0.00,weatherlink.com 1.10,2013-02-08 09:31:00,
2013-02-08 03:46:00,28.3,24.0,30.15,ENE,70,6.0,6.0,85,0.00,,,0.00,weatherlink.com 1.10,2013-02-08 09:46:00,
2013-02-08 04:01:00,28.0,24.0,30.15,ENE,65,2.0,4.0,85,0.00,,,0.00,weatherlink.com 1.10,2013-02-08 10:01:00,
2013-02-08 04:16:00,27.5,24.0,30.15,NE,49,4.0,7.0,86,0.00,,,0.00,weatherlink.com 1.10,2013-02-08 10:16:00,
2013-02-08 04:31:00,27.1,24.0,30.15,NNW,329,1.0,6.0,86,0.00,,,0.00,weatherlink.com 1.10,2013-02-08 10:31:00,
2013-02-08 04:46:00,26.9,24.0,30.16,NNE,13,3.0,7.0,87,0.00,,,0.00,weatherlink.com 1.10,2013-02-08 10:46:00,
2013-02-08 05:01:00,26.9,24.0,30.16,NE,55,2.0,7.0,87,0.00,,,0.00,weatherlink.com 1.10,2013-02-08 11:01:00,
2013-02-08 05:16:00,27.0,24.0,30.16,NE,35,4.0,6.0,87,0.00,,,0.00,weatherlink.com 1.10,2013-02-08 11:16:00,
2013-02-08 05:31:00,26.6,23.0,30.16,East,96,3.0,6.0,87,0.00,,,0.00,weatherlink.com 1.10,2013-02-08 11:31:00,
2013-02-08 05:46:00,26.3,23.0,30.17,NE,37,0.0,6.0,88,0.00,,,0.00,weatherlink.com 1.10,2013-02-08 11:46:00,
2013-02-08 06:01:00,26.2,23.0,30.17,NNW,347,2.0,4.0,88,0.00,,,0.00,weatherlink.com 1.10,2013-02-08 12:01:00,
2013-02-08 06:17:00,26.2,23.0,30.17,ESE,110,3.0,3.0,88,0.00,,,0.00,weatherlink.com 1.10,2013-02-08 12:17:00,
2013-02-08 06:31:00,26.0,23.0,30.18,ESE,118,5.0,7.0,89,0.00,,,0.00,weatherlink.com 1.10,2013-02-08 12:31:00,
2013-02-08 06:47:00,25.9,23.0,30.18,NW,323,0.0,2.0,89,0.00,,,0.00,weatherlink.com 1.10,2013-02-08 12:47:00,
2013-02-08 07:01:00,25.9,23.0,30.18,SE,130,3.0,7.0,89,0.00,,,0.00,weatherlink.com 1.10,2013-02-08 13:01:00,
2013-02-08 07:16:00,25.8,23.0,30.19,ENE,77,4.0,6.0,89,0.00,,,0.00,weatherlink.com 1.10,2013-02-08 13:16:00,
2013-02-08 07:31:00,25.7,23.0,30.19,SE,136,2.0,4.0,89,0.00,,,0.00,weatherlink.com 1.10,2013-02-08 13:31:00,
2013-02-08 07:46:00,25.8,23.0,30.19,SE,136,2.0,7.0,90,0.00,,,0.00,weatherlink.com 1.10,2013-02-08 13:46:00,
2013-02-08 08:01:00,25.7,23.0,30.19,East,98,3.0,9.0,89,0.00,,,0.00,weatherlink.com 1.10,2013-02-08 14:01:00,
2013-02-08 08:17:00,25.8,23.0,30.19,SE,131,4.0,7.0,90,0.00,,,0.00,weatherlink.com 1.10,2013-02-08 14:17:00,
2013-02-08 08:32:00,26.0,24.0,30.20,SE,132,7.0,11.0,90,0.00,,,0.00,weatherlink.com 1.10,2013-02-08 14:32:00,
2013-02-08 08:47:00,25.8,23.0,30.20,ESE,120,4.0,4.0,89,0.00,,,0.00,weatherlink.com 1.10,2013-02-08 14:47:00,
2013-02-08 09:02:00,26.1,23.0,30.19,ESE,118,9.0,10.0,89,0.00,,,0.00,weatherlink.com 1.10,2013-02-08 15:02:00,
2013-02-08 09:17:00,26.2,23.0,30.20,SSE,154,1.0,8.0,89,0.00,,,0.00,weatherlink.com 1.10,2013-02-08 15:17:00,
2013-02-08 09:32:00,26.4,24.0,30.19,SE,129,5.0,9.0,89,0.00,,,0.00,weatherlink.com 1.10,2013-02-08 15:32:00,
2013-02-08 10:02:00,26.6,24.0,30.20,ESE,102,8.0,12.0,89,0.00,,,0.00,weatherlink.com 1.10,2013-02-08 16:02:00,
2013-02-08 10:17:00,26.5,23.0,30.20,East,97,9.0,9.0,88,0.00,,,0.00,weatherlink.com 1.10,2013-02-08 16:17:00,
2013-02-08 10:32:00,26.8,24.0,30.20,South,173,8.0,11.0,88,0.00,,,0.00,weatherlink.com 1.10,2013-02-08 16:32:00,
2013-02-08 10:47:00,27.0,24.0,30.20,ESE,121,7.0,11.0,88,0.00,,,0.00,weatherlink.com 1.10,2013-02-08 16:47:00,
2013-02-08 11:02:00,27.2,24.0,30.21,South,184,0.0,9.0,87,0.00,,,0.00,weatherlink.com 1.10,2013-02-08 17:02:00,
2013-02-08 11:17:00,27.8,24.0,30.22,SSE,167,8.0,10.0,87,0.00,,,0.00,weatherlink.com 1.10,2013-02-08 17:17:00,
2013-02-08 11:32:00,28.0,24.0,30.22,SSE,165,4.0,10.0,86,0.00,,,0.00,weatherlink.com 1.10,2013-02-08 17:32:00,
2013-02-08 11:47:00,28.3,25.0,30.22,SE,126,6.0,10.0,86,0.00,,,0.00,weatherlink.com 1.10,2013-02-08 17:47:00,
2013-02-08 12:02:00,28.3,25.0,30.22,South,184,3.0,7.0,86,0.00,,,0.00,weatherlink.com 1.10,2013-02-08 18:02:00,
2013-02-08 12:17:00,28.6,25.0,30.21,SSE,163,6.0,11.0,85,0.00,,,0.00,weatherlink.com 1.10,2013-02-08 18:17:00,
2013-02-08 12:32:00,28.8,25.0,30.22,SSE,161,5.0,11.0,85,0.00,,,0.00,weatherlink.com 1.10,2013-02-08 18:32:00,
2013-02-08 12:47:00,29.2,25.0,30.20,SSE,162,6.0,8.0,85,0.00,,,0.00,weatherlink.com 1.10,2013-02-08 18:47:00,
2013-02-08 13:02:00,29.1,25.0,30.19,SSE,158,10.0,12.0,85,0.00,,,0.00,weatherlink.com 1.10,2013-02-08 19:02:00,
2013-02-08 13:17:00,29.6,26.0,30.18,SSE,148,10.0,11.0,85,0.00,,,0.00,weatherlink.com 1.10,2013-02-08 19:17:00,
2013-02-08 13:32:00,29.8,26.0,30.17,SE,128,10.0,15.0,85,0.00,,,0.00,weatherlink.com 1.10,2013-02-08 19:32:00,
2013-02-08 13:47:00,30.1,26.0,30.16,ESE,122,10.0,13.0,84,0.00,,,0.00,weatherlink.com 1.10,2013-02-08 19:47:00,
2013-02-08 14:02:00,30.2,26.0,30.15,SSE,160,13.0,16.0,84,0.00,,,0.00,weatherlink.com 1.10,2013-02-08 20:02:00,
2013-02-08 14:17:00,30.8,27.0,30.14,SSE,150,13.0,14.0,84,0.00,,,0.00,weatherlink.com 1.10,2013-02-08 20:17:00,
2013-02-08 14:32:00,31.0,27.0,30.12,SE,137,13.0,16.0,84,0.00,,,0.00,weatherlink.com 1.10,2013-02-08 20:32:00,
2013-02-08 14:47:00,31.6,27.0,30.11,SE,142,8.0,16.0,84,0.00,,,0.00,weatherlink.com 1.10,2013-02-08 20:47:00,
2013-02-08 15:02:00,32.4,28.0,30.11,SE,142,9.0,15.0,83,0.00,,,0.00,weatherlink.com 1.10,2013-02-08 21:02:00,
2013-02-08 15:32:00,32.1,28.0,30.10,SE,142,9.0,14.0,83,0.00,,,0.00,weatherlink.com 1.10,2013-02-08 21:32:00,
2013-02-08 15:47:00,32.1,28.0,30.11,SE,146,11.0,18.0,83,0.00,,,0.00,weatherlink.com 1.10,2013-02-08 21:47:00,
2013-02-08 16:03:00,31.7,27.0,30.09,SSE,150,11.0,20.0,83,0.00,,,0.00,weatherlink.com 1.10,2013-02-08 22:03:00,
2013-02-08 16:17:00,32.0,27.0,30.09,SE,138,13.0,17.0,83,0.00,,,0.00,weatherlink.com 1.10,2013-02-08 22:17:00,
2013-02-08 16:32:00,32.3,28.0,30.09,SSE,156,11.0,18.0,83,0.00,,,0.00,weatherlink.com 1.10,2013-02-08 22:32:00,
2013-02-08 16:48:00,32.4,28.0,30.08,SE,134,10.0,16.0,83,0.00,,,0.00,weatherlink.com 1.10,2013-02-08 22:48:00,
2013-02-08 17:03:00,32.1,28.0,30.08,SSE,160,10.0,14.0,83,0.00,,,0.00,weatherlink.com 1.10,2013-02-08 23:03:00,
2013-02-08 17:17:00,32.0,28.0,30.09,SSE,150,13.0,16.0,84,0.00,,,0.00,weatherlink.com 1.10,2013-02-08 23:17:00,
2013-02-08 17:32:00,31.6,28.0,30.07,SE,129,8.0,10.0,85,0.00,,,0.00,weatherlink.com 1.10,2013-02-08 23:32:00,
2013-02-08 17:48:00,31.2,28.0,30.08,SE,127,10.0,13.0,86,0.00,,,0.00,weatherlink.com 1.10,2013-02-08 23:48:00,
2013-02-08 18:02:00,30.8,27.0,30.07,ESE,122,8.0,10.0,86,0.00,,,0.00,weatherlink.com 1.10,2013-02-09 00:02:00,
2013-02-08 18:18:00,30.8,27.0,30.06,ESE,118,11.0,13.0,87,0.00,,,0.00,weatherlink.com 1.10,2013-02-09 00:18:00,
2013-02-08 18:32:00,30.2,27.0,30.05,ESE,122,12.0,15.0,87,0.00,,,0.00,weatherlink.com 1.10,2013-02-09 00:32:00,
2013-02-08 18:48:00,30.0,27.0,30.06,SE,131,10.0,14.0,88,0.00,,,0.00,weatherlink.com 1.10,2013-02-09 00:48:00,
2013-02-08 19:03:00,29.7,27.0,30.06,ESE,113,12.0,13.0,89,0.00,,,0.00,weatherlink.com 1.10,2013-02-09 01:03:00,
2013-02-08 19:18:00,29.8,27.0,30.06,SE,124,9.0,12.0,89,0.00,,,0.00,weatherlink.com 1.10,2013-02-09 01:18:00,
2013-02-08 19:32:00,29.8,27.0,30.06,SE,127,13.0,16.0,89,0.00,,,0.00,weatherlink.com 1.10,2013-02-09 01:32:00,
2013-02-08 20:03:00,29.7,27.0,30.04,SE,127,11.0,14.0,88,0.00,,,0.00,weatherlink.com 1.10,2013-02-09 02:03:00,
2013-02-08 20:18:00,29.6,27.0,30.05,SE,135,9.0,14.0,89,0.00,,,0.00,weatherlink.com 1.10,2013-02-09 02:18:00,
2013-02-08 20:33:00,29.2,26.0,30.05,ESE,112,10.0,12.0,89,0.00,,,0.00,weatherlink.com 1.10,2013-02-09 02:33:00,
2013-02-08 20:48:00,29.3,27.0,30.04,SE,131,12.0,15.0,89,0.00,,,0.00,weatherlink.com 1.10,2013-02-09 02:48:00,
2013-02-08 21:03:00,29.2,26.0,30.04,SE,127,11.0,14.0,89,0.00,,,0.00,weatherlink.com 1.10,2013-02-09 03:03:00,
2013-02-08 21:18:00,29.1,26.0,30.03,SSE,152,15.0,16.0,89,0.00,,,0.00,weatherlink.com 1.10,2013-02-09 03:18:00,
2013-02-08 21:48:00,29.3,27.0,30.02,SE,124,13.0,15.0,89,0.00,,,0.00,weatherlink.com 1.10,2013-02-09 03:48:00,
2013-02-08 22:03:00,29.3,27.0,30.02,ESE,118,15.0,17.0,89,0.00,,,0.00,weatherlink.com 1.10,2013-02-09 04:03:00,
2013-02-08 22:18:00,29.3,27.0,30.02,SE,134,12.0,16.0,89,0.00,,,0.00,weatherlink.com 1.10,2013-02-09 04:18:00,
2013-02-08 22:33:00,29.3,27.0,30.03,SE,135,10.0,15.0,89,0.00,,,0.00,weatherlink.com 1.10,2013-02-09 04:33:00,
2013-02-08 22:48:00,29.1,26.0,30.04,SE,140,10.0,14.0,89,0.00,,,0.00,weatherlink.com 1.10,2013-02-09 04:48:00,
2013-02-08 23:03:00,29.0,27.0,30.04,SSE,148,11.0,13.0,90,0.00,,,0.00,weatherlink.com 1.10,2013-02-09 05:03:00,
2013-02-08 23:18:00,29.0,27.0,30.04,SSE,150,12.0,17.0,90,0.00,,,0.00,weatherlink.com 1.10,2013-02-09 05:18:00,
2013-02-08 23:33:00,28.8,26.0,30.04,SE,144,13.0,20.0,90,0.00,,,0.00,weatherlink.com 1.10,2013-02-09 05:33:00,
2013-02-08 23:48:00,28.8,27.0,30.04,SE,143,15.0,16.0,91,0.00,,,0.00,weatherlink.com 1.10,2013-02-09 05:48:00,